sensor_id;sensor_type;location;lat;lon;timestamp;pressure;altitude;pressure_sealevel;temperature;humidity
72038;BME280;59900;50.788;12.904;2023-08-08T00:01:52;97333.25;;;11.58;90.41
72038;BME280;59900;50.788;12.904;2023-08-08T00:04:18;97338.50;;;11.58;90.09
72038;BME280;59900;50.788;12.904;2023-08-08T00:06:43;97332.03;;;11.54;90.34
72038;BME280;59900;50.788;12.904;2023-08-08T00:09:08;97333.25;;;11.51;90.43
72038;BME280;59900;50.788;12.904;2023-08-08T00:11:34;97323.75;;;11.50;90.26
72038;BME280;59900;50.788;12.904;2023-08-08T00:13:59;97322.31;;;11.48;90.12
72038;BME280;59900;50.788;12.904;2023-08-08T00:16:24;97327.41;;;11.43;90.61
72038;BME280;59900;50.788;12.904;2023-08-08T00:18:50;97327.22;;;11.38;90.79
72038;BME280;59900;50.788;12.904;2023-08-08T00:21:18;97321.16;;;11.37;90.45
72038;BME280;59900;50.788;12.904;2023-08-08T00:23:43;97313.66;;;11.34;90.32
72038;BME280;59900;50.788;12.904;2023-08-08T00:26:08;97318.72;;;11.36;90.32
72038;BME280;59900;50.788;12.904;2023-08-08T00:28:34;97319.75;;;11.35;90.22
72038;BME280;59900;50.788;12.904;2023-08-08T00:31:01;97325.00;;;11.35;89.88
72038;BME280;59900;50.788;12.904;2023-08-08T00:33:27;97317.50;;;11.32;90.10
72038;BME280;59900;50.788;12.904;2023-08-08T00:35:52;97326.41;;;11.31;90.23
72038;BME280;59900;50.788;12.904;2023-08-08T00:38:17;97329.25;;;11.29;90.35
72038;BME280;59900;50.788;12.904;2023-08-08T00:40:44;97326.22;;;11.25;90.58
72038;BME280;59900;50.788;12.904;2023-08-08T00:43:09;97321.97;;;11.24;90.58
72038;BME280;59900;50.788;12.904;2023-08-08T00:45:34;97319.75;;;11.21;90.77
72038;BME280;59900;50.788;12.904;2023-08-08T00:48:03;97317.53;;;11.18;91.00
72038;BME280;59900;50.788;12.904;2023-08-08T00:50:31;97315.94;;;11.17;90.69
72038;BME280;59900;50.788;12.904;2023-08-08T00:52:57;97311.47;;;11.18;91.12
72038;BME280;59900;50.788;12.904;2023-08-08T00:55:22;97319.56;;;11.16;91.25
72038;BME280;59900;50.788;12.904;2023-08-08T00:57:48;97315.31;;;11.15;90.80
72038;BME280;59900;50.788;12.904;2023-08-08T01:00:13;97324.00;;;11.16;90.23
72038;BME280;59900;50.788;12.904;2023-08-08T01:02:39;97315.13;;;11.10;90.68
72038;BME280;59900;50.788;12.904;2023-08-08T01:05:05;97317.34;;;11.13;90.48
72038;BME280;59900;50.788;12.904;2023-08-08T01:07:47;97320.19;;;11.12;90.24
72038;BME280;59900;50.788;12.904;2023-08-08T01:10:22;97308.44;;;11.08;90.02
72038;BME280;59900;50.788;12.904;2023-08-08T01:12:55;97317.97;;;11.09;89.95
72038;BME280;59900;50.788;12.904;2023-08-08T01:15:24;97313.94;;;11.06;89.69
72038;BME280;59900;50.788;12.904;2023-08-08T01:17:54;97307.44;;;11.02;89.97
72038;BME280;59900;50.788;12.904;2023-08-08T01:20:19;97309.25;;;11.02;89.88
72038;BME280;59900;50.788;12.904;2023-08-08T01:25:47;97303.41;;;11.00;89.46
72038;BME280;59900;50.788;12.904;2023-08-08T01:28:13;97300.78;;;11.00;89.63
72038;BME280;59900;50.788;12.904;2023-08-08T01:30:38;97312.09;;;11.00;89.39
72038;BME280;59900;50.788;12.904;2023-08-08T01:33:05;97319.19;;;11.00;89.49
72038;BME280;59900;50.788;12.904;2023-08-08T01:35:37;97309.47;;;11.00;89.02
72038;BME280;59900;50.788;12.904;2023-08-08T01:38:19;97308.84;;;10.98;89.00
72038;BME280;59900;50.788;12.904;2023-08-08T01:40:46;97308.25;;;10.96;89.13
72038;BME280;59900;50.788;12.904;2023-08-08T01:43:14;97306.63;;;10.95;88.54
72038;BME280;59900;50.788;12.904;2023-08-08T01:45:40;97312.28;;;10.92;88.67
72038;BME280;59900;50.788;12.904;2023-08-08T01:48:10;97306.03;;;10.93;88.56
72038;BME280;59900;50.788;12.904;2023-08-08T01:50:36;97309.47;;;10.94;88.49
72038;BME280;59900;50.788;12.904;2023-08-08T01:53:02;97305.63;;;10.90;88.39
72038;BME280;59900;50.788;12.904;2023-08-08T01:55:28;97307.44;;;10.89;88.24
72038;BME280;59900;50.788;12.904;2023-08-08T01:57:53;97303.22;;;10.88;88.17
72038;BME280;59900;50.788;12.904;2023-08-08T02:00:18;97307.06;;;10.86;88.49
72038;BME280;59900;50.788;12.904;2023-08-08T02:02:44;97308.06;;;10.85;88.35
72038;BME280;59900;50.788;12.904;2023-08-08T02:05:09;97298.78;;;10.82;88.53
72038;BME280;59900;50.788;12.904;2023-08-08T02:07:34;97292.69;;;10.82;88.71
72038;BME280;59900;50.788;12.904;2023-08-08T02:09:59;97308.69;;;10.80;88.78
72038;BME280;59900;50.788;12.904;2023-08-08T02:12:25;97296.34;;;10.74;89.08
72038;BME280;59900;50.788;12.904;2023-08-08T02:14:51;97296.34;;;10.74;89.44
72038;BME280;59900;50.788;12.904;2023-08-08T02:17:18;97304.44;;;10.73;88.96
72038;BME280;59900;50.788;12.904;2023-08-08T02:19:43;97300.16;;;10.72;89.26
72038;BME280;59900;50.788;12.904;2023-08-08T02:22:09;97304.63;;;10.71;88.90
72038;BME280;59900;50.788;12.904;2023-08-08T02:24:34;97302.19;;;10.69;89.05
72038;BME280;59900;50.788;12.904;2023-08-08T02:26:59;97300.56;;;10.68;88.82
72038;BME280;59900;50.788;12.904;2023-08-08T02:29:25;97299.97;;;10.66;88.62
72038;BME280;59900;50.788;12.904;2023-08-08T02:31:50;97301.19;;;10.64;88.88
72038;BME280;59900;50.788;12.904;2023-08-08T02:34:15;97312.69;;;10.63;89.08
72038;BME280;59900;50.788;12.904;2023-08-08T02:36:40;97306.84;;;10.61;88.79
72038;BME280;59900;50.788;12.904;2023-08-08T02:39:06;97310.28;;;10.61;88.65
72038;BME280;59900;50.788;12.904;2023-08-08T02:41:34;97301.19;;;10.57;88.89
72038;BME280;59900;50.788;12.904;2023-08-08T02:43:59;97301.81;;;10.59;88.79
72038;BME280;59900;50.788;12.904;2023-08-08T02:46:25;97301.19;;;10.57;89.08
72038;BME280;59900;50.788;12.904;2023-08-08T02:48:50;97295.13;;;10.57;88.93
72038;BME280;59900;50.788;12.904;2023-08-08T02:51:15;97304.22;;;10.54;89.03
72038;BME280;59900;50.788;12.904;2023-08-08T02:53:41;97301.97;;;10.51;89.37
72038;BME280;59900;50.788;12.904;2023-08-08T02:56:06;97301.16;;;10.51;89.41
72038;BME280;59900;50.788;12.904;2023-08-08T02:58:34;97300.38;;;10.50;89.52
72038;BME280;59900;50.788;12.904;2023-08-08T03:00:59;97305.81;;;10.49;89.63
72038;BME280;59900;50.788;12.904;2023-08-08T03:03:25;97296.13;;;10.49;89.44
72038;BME280;59900;50.788;12.904;2023-08-08T03:05:50;97295.31;;;10.49;89.80
72038;BME280;59900;50.788;12.904;2023-08-08T03:08:18;97293.28;;;10.51;89.34
72038;BME280;59900;50.788;12.904;2023-08-08T03:10:43;97289.06;;;10.50;89.78
72038;BME280;59900;50.788;12.904;2023-08-08T03:13:09;97290.66;;;10.51;89.51
72038;BME280;59900;50.788;12.904;2023-08-08T03:15:34;97293.09;;;10.52;89.32
72038;BME280;59900;50.788;12.904;2023-08-08T03:18:00;97290.66;;;10.51;89.74
72038;BME280;59900;50.788;12.904;2023-08-08T03:20:25;97287.66;;;10.47;90.20
72038;BME280;59900;50.788;12.904;2023-08-08T03:22:51;97284.22;;;10.47;90.21
72038;BME280;59900;50.788;12.904;2023-08-08T03:25:19;97285.22;;;10.46;90.14
72038;BME280;59900;50.788;12.904;2023-08-08T03:27:44;97277.75;;;10.49;90.32
72038;BME280;59900;50.788;12.904;2023-08-08T03:30:10;97282.78;;;10.51;89.83
72038;BME280;59900;50.788;12.904;2023-08-08T03:32:35;97284.41;;;10.52;90.56
72038;BME280;59900;50.788;12.904;2023-08-08T03:35:01;97278.16;;;10.53;90.51
72038;BME280;59900;50.788;12.904;2023-08-08T03:37:26;97274.91;;;10.51;90.48
72038;BME280;59900;50.788;12.904;2023-08-08T03:39:51;97279.97;;;10.52;90.65
72038;BME280;59900;50.788;12.904;2023-08-08T03:42:17;97278.34;;;10.51;90.63
72038;BME280;59900;50.788;12.904;2023-08-08T03:44:42;97285.41;;;10.51;90.72
72038;BME280;59900;50.788;12.904;2023-08-08T03:47:07;97268.63;;;10.52;90.92
72038;BME280;59900;50.788;12.904;2023-08-08T03:49:33;97275.72;;;10.51;91.07
72038;BME280;59900;50.788;12.904;2023-08-08T03:51:58;97275.53;;;10.53;91.67
72038;BME280;59900;50.788;12.904;2023-08-08T03:54:24;97267.81;;;10.51;91.58
72038;BME280;59900;50.788;12.904;2023-08-08T03:56:49;97265.00;;;10.53;91.76
72038;BME280;59900;50.788;12.904;2023-08-08T03:59:14;97271.47;;;10.57;91.51
72038;BME280;59900;50.788;12.904;2023-08-08T04:01:39;97273.09;;;10.58;91.68
72038;BME280;59900;50.788;12.904;2023-08-08T04:04:05;97269.47;;;10.59;91.52
72038;BME280;59900;50.788;12.904;2023-08-08T04:06:30;97262.19;;;10.61;91.79
72038;BME280;59900;50.788;12.904;2023-08-08T04:08:56;97260.16;;;10.63;91.94
72038;BME280;59900;50.788;12.904;2023-08-08T04:11:21;97257.94;;;10.66;92.04
72038;BME280;59900;50.788;12.904;2023-08-08T04:13:46;97266.41;;;10.68;92.15
72038;BME280;59900;50.788;12.904;2023-08-08T04:16:11;97265.22;;;10.71;92.18
72038;BME280;59900;50.788;12.904;2023-08-08T04:18:37;97256.31;;;10.72;92.40
72038;BME280;59900;50.788;12.904;2023-08-08T04:21:02;97266.22;;;10.77;92.52
72038;BME280;59900;50.788;12.904;2023-08-08T04:23:27;97255.28;;;10.86;93.11
72038;BME280;59900;50.788;12.904;2023-08-08T04:25:55;97259.94;;;10.91;92.26
72038;BME280;59900;50.788;12.904;2023-08-08T04:28:21;97253.69;;;10.92;92.08
72038;BME280;59900;50.788;12.904;2023-08-08T04:30:46;97254.88;;;10.89;92.44
72038;BME280;59900;50.788;12.904;2023-08-08T04:33:11;97251.25;;;10.90;92.41
72038;BME280;59900;50.788;12.904;2023-08-08T04:35:37;97259.72;;;10.92;92.21
72038;BME280;59900;50.788;12.904;2023-08-08T04:38:02;97262.97;;;10.94;92.31
72038;BME280;59900;50.788;12.904;2023-08-08T04:40:27;97280.75;;;10.92;92.29
72038;BME280;59900;50.788;12.904;2023-08-08T04:42:52;97262.56;;;10.97;92.36
72038;BME280;59900;50.788;12.904;2023-08-08T04:45:18;97266.59;;;11.00;92.05
72038;BME280;59900;50.788;12.904;2023-08-08T04:47:44;97268.81;;;11.03;92.02
72038;BME280;59900;50.788;12.904;2023-08-08T04:50:10;97269.59;;;11.10;92.06
72038;BME280;59900;50.788;12.904;2023-08-08T04:52:35;97277.28;;;11.11;91.71
72038;BME280;59900;50.788;12.904;2023-08-08T04:55:00;97270.59;;;11.15;91.45
72038;BME280;59900;50.788;12.904;2023-08-08T04:57:25;97260.28;;;11.20;91.52
72038;BME280;59900;50.788;12.904;2023-08-08T04:59:51;97269.38;;;11.24;91.32
72038;BME280;59900;50.788;12.904;2023-08-08T05:02:16;97271.38;;;11.29;90.24
72038;BME280;59900;50.788;12.904;2023-08-08T05:04:41;97275.00;;;11.35;90.17
72038;BME280;59900;50.788;12.904;2023-08-08T05:07:07;97279.88;;;11.38;90.46
72038;BME280;59900;50.788;12.904;2023-08-08T05:09:32;97266.88;;;11.43;89.97
72038;BME280;59900;50.788;12.904;2023-08-08T05:11:58;97270.75;;;11.40;89.85
72038;BME280;59900;50.788;12.904;2023-08-08T05:14:23;97267.69;;;11.43;89.58
72038;BME280;59900;50.788;12.904;2023-08-08T05:16:48;97263.84;;;11.46;89.53
72038;BME280;59900;50.788;12.904;2023-08-08T05:19:13;97265.25;;;11.48;89.25
72038;BME280;59900;50.788;12.904;2023-08-08T05:21:39;97262.63;;;11.48;89.12
72038;BME280;59900;50.788;12.904;2023-08-08T05:24:04;97270.09;;;11.51;89.08
72038;BME280;59900;50.788;12.904;2023-08-08T05:26:29;97258.34;;;11.54;89.02
72038;BME280;59900;50.788;12.904;2023-08-08T05:28:55;97262.41;;;11.56;88.61
72038;BME280;59900;50.788;12.904;2023-08-08T05:31:20;97260.13;;;11.60;87.92
72038;BME280;59900;50.788;12.904;2023-08-08T05:33:45;97256.09;;;11.64;87.81
72038;BME280;59900;50.788;12.904;2023-08-08T05:36:10;97263.97;;;11.64;87.39
72038;BME280;59900;50.788;12.904;2023-08-08T05:38:36;97266.38;;;11.65;87.25
72038;BME280;59900;50.788;12.904;2023-08-08T05:41:02;97264.16;;;11.69;86.62
72038;BME280;59900;50.788;12.904;2023-08-08T05:43:29;97263.75;;;11.72;86.58
72038;BME280;59900;50.788;12.904;2023-08-08T05:45:54;97266.22;;;11.73;86.61
72038;BME280;59900;50.788;12.904;2023-08-08T05:48:20;97267.59;;;11.76;86.28
72038;BME280;59900;50.788;12.904;2023-08-08T05:50:45;97271.25;;;11.75;86.51
72038;BME280;59900;50.788;12.904;2023-08-08T05:53:10;97263.16;;;11.76;86.63
72038;BME280;59900;50.788;12.904;2023-08-08T05:55:36;97276.31;;;11.76;86.48
72038;BME280;59900;50.788;12.904;2023-08-08T05:58:02;97276.69;;;11.80;86.57
72038;BME280;59900;50.788;12.904;2023-08-08T06:00:30;97277.06;;;11.84;86.12
72038;BME280;59900;50.788;12.904;2023-08-08T06:02:56;97283.16;;;11.84;86.11
72038;BME280;59900;50.788;12.904;2023-08-08T06:05:22;97271.63;;;11.85;86.35
72038;BME280;59900;50.788;12.904;2023-08-08T06:07:48;97262.69;;;11.86;85.88
72038;BME280;59900;50.788;12.904;2023-08-08T06:10:13;97266.09;;;11.93;85.98
72038;BME280;59900;50.788;12.904;2023-08-08T06:12:39;97261.00;;;11.98;86.00
72038;BME280;59900;50.788;12.904;2023-08-08T06:15:05;97258.38;;;11.98;85.76
72038;BME280;59900;50.788;12.904;2023-08-08T06:17:30;97257.31;;;12.06;85.66
72038;BME280;59900;50.788;12.904;2023-08-08T06:19:55;97254.03;;;12.10;84.38
72038;BME280;59900;50.788;12.904;2023-08-08T06:22:22;97259.28;;;12.17;84.51
72038;BME280;59900;50.788;12.904;2023-08-08T06:24:47;97259.88;;;12.19;84.13
72038;BME280;59900;50.788;12.904;2023-08-08T06:27:13;97267.34;;;12.22;84.13
72038;BME280;59900;50.788;12.904;2023-08-08T06:29:41;97277.25;;;12.26;83.75
72038;BME280;59900;50.788;12.904;2023-08-08T06:32:07;97280.25;;;12.30;83.51
72038;BME280;59900;50.788;12.904;2023-08-08T06:34:32;97262.19;;;12.33;81.91
72038;BME280;59900;50.788;12.904;2023-08-08T06:36:58;97284.63;;;12.43;82.48
72038;BME280;59900;50.788;12.904;2023-08-08T06:39:23;97278.94;;;12.46;81.48
72038;BME280;59900;50.788;12.904;2023-08-08T06:41:49;97271.41;;;12.49;81.58
72038;BME280;59900;50.788;12.904;2023-08-08T06:44:14;97281.31;;;12.54;80.88
72038;BME280;59900;50.788;12.904;2023-08-08T06:46:42;97290.84;;;12.55;81.10
72038;BME280;59900;50.788;12.904;2023-08-08T06:49:07;97280.88;;;12.57;81.61
72038;BME280;59900;50.788;12.904;2023-08-08T06:51:34;97281.09;;;12.55;82.92
72038;BME280;59900;50.788;12.904;2023-08-08T06:53:59;97296.38;;;12.47;83.87
72038;BME280;59900;50.788;12.904;2023-08-08T06:56:24;97280.59;;;12.40;85.50
72038;BME280;59900;50.788;12.904;2023-08-08T06:58:51;97286.34;;;12.30;86.33
72038;BME280;59900;50.788;12.904;2023-08-08T07:01:16;97269.78;;;12.23;86.51
72038;BME280;59900;50.788;12.904;2023-08-08T07:03:42;97294.09;;;12.19;86.54
72038;BME280;59900;50.788;12.904;2023-08-08T07:06:09;97277.13;;;12.15;87.71
72038;BME280;59900;50.788;12.904;2023-08-08T07:08:34;97282.75;;;12.18;87.80
72038;BME280;59900;50.788;12.904;2023-08-08T07:10:59;97289.25;;;12.16;87.64
72038;BME280;59900;50.788;12.904;2023-08-08T07:13:24;97277.50;;;12.18;87.34
72038;BME280;59900;50.788;12.904;2023-08-08T07:15:50;97290.66;;;12.18;87.75
72038;BME280;59900;50.788;12.904;2023-08-08T07:18:15;97281.75;;;12.19;88.09
72038;BME280;59900;50.788;12.904;2023-08-08T07:20:40;97282.75;;;12.18;88.05
72038;BME280;59900;50.788;12.904;2023-08-08T07:23:09;97282.75;;;12.18;88.45
72038;BME280;59900;50.788;12.904;2023-08-08T07:25:34;97283.19;;;12.15;88.91
72038;BME280;59900;50.788;12.904;2023-08-08T07:28:00;97286.03;;;12.14;88.92
72038;BME280;59900;50.788;12.904;2023-08-08T07:30:25;97278.13;;;12.14;88.06
72038;BME280;59900;50.788;12.904;2023-08-08T07:32:53;97280.78;;;12.14;87.87
72038;BME280;59900;50.788;12.904;2023-08-08T07:35:18;97263.13;;;12.21;88.26
72038;BME280;59900;50.788;12.904;2023-08-08T07:37:43;97261.44;;;12.26;87.64
72038;BME280;59900;50.788;12.904;2023-08-08T07:40:17;97249.09;;;12.27;87.51
72038;BME280;59900;50.788;12.904;2023-08-08T07:42:46;97247.44;;;12.32;87.36
72038;BME280;59900;50.788;12.904;2023-08-08T07:45:11;97253.88;;;12.36;87.21
72038;BME280;59900;50.788;12.904;2023-08-08T07:47:37;97258.28;;;12.43;86.98
72038;BME280;59900;50.788;12.904;2023-08-08T07:50:06;97261.88;;;12.48;87.38
72038;BME280;59900;50.788;12.904;2023-08-08T07:52:34;97259.44;;;12.53;86.84
72038;BME280;59900;50.788;12.904;2023-08-08T07:55:03;97289.59;;;12.57;86.71
72038;BME280;59900;50.788;12.904;2023-08-08T07:57:29;97265.41;;;12.67;86.29
72038;BME280;59900;50.788;12.904;2023-08-08T07:59:55;97274.84;;;12.74;85.54
72038;BME280;59900;50.788;12.904;2023-08-08T08:02:20;97264.41;;;12.86;85.17
72038;BME280;59900;50.788;12.904;2023-08-08T08:04:46;97271.84;;;12.96;83.70
72038;BME280;59900;50.788;12.904;2023-08-08T08:07:11;97277.22;;;13.07;84.42
72038;BME280;59900;50.788;12.904;2023-08-08T08:09:36;97275.94;;;13.16;82.27
72038;BME280;59900;50.788;12.904;2023-08-08T08:12:02;97269.34;;;13.25;82.79
72038;BME280;59900;50.788;12.904;2023-08-08T08:14:28;97279.97;;;13.37;82.89
72038;BME280;59900;50.788;12.904;2023-08-08T08:16:53;97274.84;;;13.42;82.31
72038;BME280;59900;50.788;12.904;2023-08-08T08:19:19;97280.06;;;13.48;83.15
72038;BME280;59900;50.788;12.904;2023-08-08T08:21:45;97264.97;;;13.56;83.01
72038;BME280;59900;50.788;12.904;2023-08-08T08:24:10;97276.09;;;13.58;81.53
72038;BME280;59900;50.788;12.904;2023-08-08T08:26:35;97281.81;;;13.55;81.43
72038;BME280;59900;50.788;12.904;2023-08-08T08:29:00;97284.03;;;13.58;80.68
72038;BME280;59900;50.788;12.904;2023-08-08T08:31:26;97278.31;;;13.61;81.22
72038;BME280;59900;50.788;12.904;2023-08-08T08:33:51;97272.13;;;13.67;80.57
72038;BME280;59900;50.788;12.904;2023-08-08T08:36:16;97277.78;;;13.70;79.76
72038;BME280;59900;50.788;12.904;2023-08-08T08:38:42;97274.59;;;13.80;80.21
72038;BME280;59900;50.788;12.904;2023-08-08T08:41:08;97273.19;;;13.95;80.81
72038;BME280;59900;50.788;12.904;2023-08-08T08:43:40;97272.78;;;14.10;78.39
72038;BME280;59900;50.788;12.904;2023-08-08T08:46:07;97268.69;;;14.14;77.63
72038;BME280;59900;50.788;12.904;2023-08-08T08:48:35;97254.69;;;14.25;77.54
72038;BME280;59900;50.788;12.904;2023-08-08T08:51:00;97259.00;;;14.38;76.27
72038;BME280;59900;50.788;12.904;2023-08-08T08:53:26;97267.19;;;14.48;75.26
72038;BME280;59900;50.788;12.904;2023-08-08T08:55:52;97253.75;;;14.49;75.05
72038;BME280;59900;50.788;12.904;2023-08-08T08:58:22;97262.81;;;14.53;74.10
72038;BME280;59900;50.788;12.904;2023-08-08T09:00:49;97271.13;;;14.57;73.59
72038;BME280;59900;50.788;12.904;2023-08-08T09:03:16;97250.66;;;14.64;73.89
72038;BME280;59900;50.788;12.904;2023-08-08T09:05:42;97265.38;;;14.72;73.59
72038;BME280;59900;50.788;12.904;2023-08-08T09:08:08;97270.13;;;14.81;73.70
72038;BME280;59900;50.788;12.904;2023-08-08T09:10:36;97257.81;;;14.87;72.82
72038;BME280;59900;50.788;12.904;2023-08-08T09:13:02;97266.78;;;14.97;72.65
72038;BME280;59900;50.788;12.904;2023-08-08T09:15:37;97262.41;;;15.03;71.20
72038;BME280;59900;50.788;12.904;2023-08-08T09:18:02;97282.78;;;15.14;71.27
72038;BME280;59900;50.788;12.904;2023-08-08T09:20:27;97264.47;;;15.12;69.41
72038;BME280;59900;50.788;12.904;2023-08-08T09:22:56;97256.19;;;15.21;70.08
72038;BME280;59900;50.788;12.904;2023-08-08T09:25:22;97251.69;;;15.33;68.89
72038;BME280;59900;50.788;12.904;2023-08-08T09:27:52;97260.53;;;15.38;69.07
72038;BME280;59900;50.788;12.904;2023-08-08T09:30:20;97268.59;;;15.43;69.10
72038;BME280;59900;50.788;12.904;2023-08-08T09:32:46;97260.31;;;15.51;69.24
72038;BME280;59900;50.788;12.904;2023-08-08T09:35:11;97255.47;;;15.60;69.68
72038;BME280;59900;50.788;12.904;2023-08-08T09:37:37;97258.09;;;15.72;68.10
72038;BME280;59900;50.788;12.904;2023-08-08T09:40:03;97254.53;;;15.66;65.91
72038;BME280;59900;50.788;12.904;2023-08-08T09:42:34;97253.34;;;15.74;65.79
72038;BME280;59900;50.788;12.904;2023-08-08T09:45:03;97250.25;;;15.65;64.82
72038;BME280;59900;50.788;12.904;2023-08-08T09:47:28;97248.44;;;15.65;65.27
72038;BME280;59900;50.788;12.904;2023-08-08T09:49:59;97240.38;;;15.60;64.87
72038;BME280;59900;50.788;12.904;2023-08-08T09:52:28;97251.81;;;15.49;65.66
72038;BME280;59900;50.788;12.904;2023-08-08T09:54:54;97262.84;;;15.46;66.54
72038;BME280;59900;50.788;12.904;2023-08-08T09:57:24;97266.28;;;15.35;65.75
72038;BME280;59900;50.788;12.904;2023-08-08T09:59:52;97252.03;;;15.36;66.06
72038;BME280;59900;50.788;12.904;2023-08-08T10:02:18;97247.97;;;15.45;66.20
72038;BME280;59900;50.788;12.904;2023-08-08T10:04:45;97248.56;;;15.47;65.59
72038;BME280;59900;50.788;12.904;2023-08-08T10:07:11;97237.84;;;15.54;66.16
72038;BME280;59900;50.788;12.904;2023-08-08T10:09:36;97236.38;;;15.58;66.47
72038;BME280;59900;50.788;12.904;2023-08-08T10:12:04;97239.34;;;15.61;66.59
72038;BME280;59900;50.788;12.904;2023-08-08T10:14:37;97240.38;;;15.60;65.71
72038;BME280;59900;50.788;12.904;2023-08-08T10:17:04;97243.16;;;15.42;65.16
72038;BME280;59900;50.788;12.904;2023-08-08T10:19:32;97244.53;;;15.45;66.12
72038;BME280;59900;50.788;12.904;2023-08-08T10:22:00;97253.53;;;15.44;67.19
72038;BME280;59900;50.788;12.904;2023-08-08T10:24:33;97255.13;;;15.33;67.41
72038;BME280;59900;50.788;12.904;2023-08-08T10:27:00;97237.88;;;15.31;68.79
72038;BME280;59900;50.788;12.904;2023-08-08T10:29:32;97246.84;;;15.30;70.00
72038;BME280;59900;50.788;12.904;2023-08-08T10:32:04;97238.69;;;15.31;69.82
72038;BME280;59900;50.788;12.904;2023-08-08T10:34:43;97233.38;;;15.43;69.54
72038;BME280;59900;50.788;12.904;2023-08-08T10:37:10;97232.44;;;15.60;69.10
72038;BME280;59900;50.788;12.904;2023-08-08T10:39:37;97222.69;;;15.78;69.18
72038;BME280;59900;50.788;12.904;2023-08-08T10:42:03;97225.72;;;15.98;68.39
72038;BME280;59900;50.788;12.904;2023-08-08T10:44:29;97237.75;;;16.17;65.30
72038;BME280;59900;50.788;12.904;2023-08-08T10:46:55;97211.47;;;16.32;63.93
72038;BME280;59900;50.788;12.904;2023-08-08T10:49:20;97207.72;;;16.45;63.53
72038;BME280;59900;50.788;12.904;2023-08-08T10:51:49;97201.06;;;16.42;62.27
72038;BME280;59900;50.788;12.904;2023-08-08T10:54:25;97225.81;;;16.48;61.28
72038;BME280;59900;50.788;12.904;2023-08-08T10:56:57;97211.63;;;16.54;59.23
72038;BME280;59900;50.788;12.904;2023-08-08T10:59:41;97202.94;;;16.58;59.00
72038;BME280;59900;50.788;12.904;2023-08-08T11:02:07;97181.16;;;16.73;59.95
72038;BME280;59900;50.788;12.904;2023-08-08T11:04:35;97183.44;;;16.86;58.67
72038;BME280;59900;50.788;12.904;2023-08-08T11:07:03;97177.53;;;17.01;58.70
72038;BME280;59900;50.788;12.904;2023-08-08T11:09:29;97179.53;;;17.10;58.07
72038;BME280;59900;50.788;12.904;2023-08-08T11:11:55;97171.56;;;17.10;57.91
72038;BME280;59900;50.788;12.904;2023-08-08T11:14:21;97165.03;;;17.18;58.39
72038;BME280;59900;50.788;12.904;2023-08-08T11:16:49;97164.63;;;17.26;57.58
72038;BME280;59900;50.788;12.904;2023-08-08T11:19:15;97173.19;;;17.33;58.27
72038;BME280;59900;50.788;12.904;2023-08-08T11:21:43;97154.03;;;17.31;58.06
72038;BME280;59900;50.788;12.904;2023-08-08T11:24:09;97145.56;;;17.34;57.66
72038;BME280;59900;50.788;12.904;2023-08-08T11:26:36;97154.75;;;17.26;55.28
72038;BME280;59900;50.788;12.904;2023-08-08T11:29:02;97162.25;;;17.29;55.57
72038;BME280;59900;50.788;12.904;2023-08-08T11:31:28;97156.66;;;17.26;55.51
72038;BME280;59900;50.788;12.904;2023-08-08T11:33:54;97150.69;;;17.19;56.01
72038;BME280;59900;50.788;12.904;2023-08-08T11:36:21;97155.25;;;17.23;54.58
72038;BME280;59900;50.788;12.904;2023-08-08T11:38:48;97150.09;;;17.33;54.25
72038;BME280;59900;50.788;12.904;2023-08-08T11:41:15;97142.97;;;17.39;54.86
72038;BME280;59900;50.788;12.904;2023-08-08T11:43:41;97142.56;;;17.25;54.66
72038;BME280;59900;50.788;12.904;2023-08-08T11:46:12;97155.22;;;17.18;55.63
72038;BME280;59900;50.788;12.904;2023-08-08T11:48:38;97151.06;;;17.06;56.68
72038;BME280;59900;50.788;12.904;2023-08-08T11:51:07;97153.91;;;16.99;57.83
72038;BME280;59900;50.788;12.904;2023-08-08T11:53:33;97158.25;;;16.89;57.62
72038;BME280;59900;50.788;12.904;2023-08-08T11:56:00;97153.75;;;16.89;58.49
72038;BME280;59900;50.788;12.904;2023-08-08T11:58:25;97163.41;;;16.95;58.78
72038;BME280;59900;50.788;12.904;2023-08-08T12:00:52;97151.69;;;17.13;56.73
72038;BME280;59900;50.788;12.904;2023-08-08T12:03:20;97145.75;;;17.49;56.41
72038;BME280;59900;50.788;12.904;2023-08-08T12:05:47;97125.25;;;17.66;55.47
72038;BME280;59900;50.788;12.904;2023-08-08T12:08:13;97149.25;;;17.76;54.80
72038;BME280;59900;50.788;12.904;2023-08-08T12:10:39;97138.47;;;17.88;53.55
72038;BME280;59900;50.788;12.904;2023-08-08T12:13:04;97146.00;;;17.96;53.75
72038;BME280;59900;50.788;12.904;2023-08-08T12:15:33;97135.31;;;17.91;52.85
72038;BME280;59900;50.788;12.904;2023-08-08T12:18:01;97135.06;;;17.92;54.10
72038;BME280;59900;50.788;12.904;2023-08-08T12:20:28;97134.75;;;17.89;52.22
72038;BME280;59900;50.788;12.904;2023-08-08T12:22:55;97132.75;;;18.01;53.55
72038;BME280;59900;50.788;12.904;2023-08-08T12:25:20;97125.75;;;18.22;53.48
72038;BME280;59900;50.788;12.904;2023-08-08T12:27:45;97120.59;;;18.47;52.10
72038;BME280;59900;50.788;12.904;2023-08-08T12:30:10;97117.53;;;18.60;51.24
72038;BME280;59900;50.788;12.904;2023-08-08T12:32:36;97124.63;;;18.91;51.04
72038;BME280;59900;50.788;12.904;2023-08-08T12:35:01;97134.22;;;18.92;50.07
72038;BME280;59900;50.788;12.904;2023-08-08T12:37:27;97121.63;;;18.78;50.00
72038;BME280;59900;50.788;12.904;2023-08-08T12:39:52;97128.19;;;18.60;50.02
72038;BME280;59900;50.788;12.904;2023-08-08T12:42:18;97134.38;;;18.39;49.42
72038;BME280;59900;50.788;12.904;2023-08-08T12:44:44;97124.72;;;18.28;49.80
72038;BME280;59900;50.788;12.904;2023-08-08T12:47:10;97136.34;;;18.17;50.83
72038;BME280;59900;50.788;12.904;2023-08-08T12:49:35;97111.50;;;18.06;51.54